createdAt,value
2022-11-19T00:01:35.172Z,100366.25
2022-11-19T00:04:02.877Z,100370.09
2022-11-19T00:06:30.597Z,100373.91
2022-11-19T00:08:58.355Z,100370.38
2022-11-19T00:11:41.184Z,100386.19
2022-11-19T00:14:12.354Z,100369.09
2022-11-19T00:16:40.089Z,100382.16
2022-11-19T00:19:08.164Z,100387.59
2022-11-19T00:21:35.911Z,100360.72
2022-11-19T00:24:03.540Z,100358.25
2022-11-19T00:26:31.186Z,100370.03
2022-11-19T00:28:58.967Z,100378.63
2022-11-19T00:31:28.061Z,100374.97
2022-11-19T00:33:55.929Z,100366.84
2022-11-19T00:36:24.281Z,100373.34
2022-11-19T00:38:52.056Z,100376.97
2022-11-19T00:41:20.410Z,100378.25
2022-11-19T00:43:48.486Z,100380.63
2022-11-19T00:46:17.643Z,100385.47
2022-11-19T00:48:47.206Z,100383.59
2022-11-19T00:51:15.300Z,100381.00
2022-11-19T00:53:43.052Z,100400.22
2022-11-19T00:56:12.522Z,100395.38
2022-11-19T00:58:40.590Z,100389.72
2022-11-19T01:01:09.365Z,100404.94
2022-11-19T01:03:38.396Z,100408.66
2022-11-19T01:06:08.264Z,100417.53
2022-11-19T01:08:35.983Z,100411.13
2022-11-19T01:11:07.787Z,100404.59
2022-11-19T01:13:36.050Z,100415.47
2022-11-19T01:16:05.518Z,100415.34
2022-11-19T01:18:33.695Z,100420.19
2022-11-19T01:21:01.539Z,100426.06
2022-11-19T01:23:30.661Z,100428.34
2022-11-19T01:25:58.405Z,100435.69
2022-11-19T01:28:26.200Z,100432.63
2022-11-19T01:30:53.999Z,100428.25
2022-11-19T01:33:22.639Z,100438.91
2022-11-19T01:36:01.328Z,100440.00
2022-11-19T01:38:30.857Z,100424.41
2022-11-19T01:40:59.307Z,100423.59
2022-11-19T01:43:45.400Z,100409.22
2022-11-19T01:46:14.668Z,100437.63
2022-11-19T01:48:45.544Z,100444.44
2022-11-19T01:51:15.247Z,100437.63
2022-11-19T01:53:45.557Z,100438.88
2022-11-19T01:56:13.552Z,100443.03
2022-11-19T01:58:42.603Z,100424.78
2022-11-19T02:01:11.083Z,100438.34
2022-11-19T02:03:39.631Z,100444.75
2022-11-19T02:06:08.428Z,100444.88
2022-11-19T02:08:39.281Z,100440.84
2022-11-19T02:11:22.001Z,100455.91
2022-11-19T02:13:57.356Z,100457.00
2022-11-19T02:16:28.600Z,100459.59
2022-11-19T02:19:00.106Z,100456.41
2022-11-19T02:21:33.169Z,100464.59
2022-11-19T02:24:29.333Z,100468.25
2022-11-19T02:27:37.385Z,100473.91
2022-11-19T02:30:12.020Z,100466.19
2022-11-19T02:32:48.092Z,100459.84
2022-11-19T02:35:21.378Z,100467.59
2022-11-19T02:37:53.100Z,100470.16
2022-11-19T02:40:24.951Z,100461.19
2022-11-19T02:42:58.017Z,100478.75
2022-11-19T02:45:30.644Z,100476.44
2022-11-19T02:48:02.044Z,100490.53
2022-11-19T02:50:32.991Z,100493.56
2022-11-19T02:53:00.648Z,100490.69
2022-11-19T02:55:28.832Z,100484.94
2022-11-19T02:57:59.664Z,100486.88
2022-11-19T03:00:47.117Z,100478.81
2022-11-19T03:03:33.921Z,100486.31
2022-11-19T03:06:04.511Z,100483.50
2022-11-19T03:08:32.352Z,100478.41
2022-11-19T03:11:08.855Z,100489.84
2022-11-19T03:14:03.677Z,100484.72
2022-11-19T03:16:44.029Z,100483.22
2022-11-19T03:19:19.789Z,100469.69
2022-11-19T03:21:52.524Z,100481.56
2022-11-19T03:24:24.610Z,100486.09
2022-11-19T03:26:55.300Z,100485.34
2022-11-19T03:29:23.891Z,100492.03
2022-11-19T03:31:55.633Z,100483.63
2022-11-19T03:34:24.412Z,100507.81
2022-11-19T03:36:54.783Z,100499.06
2022-11-19T03:39:23.220Z,100489.44
2022-11-19T03:41:52.305Z,100498.72
2022-11-19T03:44:23.240Z,100502.28
2022-11-19T03:46:56.001Z,100510.72
2022-11-19T03:49:28.445Z,100501.59
2022-11-19T03:51:59.375Z,100501.09
2022-11-19T03:54:27.105Z,100505.94
2022-11-19T03:56:55.821Z,100506.31
2022-11-19T03:59:29.326Z,100513.38
2022-11-19T04:02:01.291Z,100519.94
2022-11-19T04:04:38.001Z,100524.41
2022-11-19T04:07:10.868Z,100542.19
2022-11-19T04:09:39.156Z,100528.81
2022-11-19T04:12:08.199Z,100544.59
2022-11-19T04:14:35.969Z,100545.97
2022-11-19T04:17:05.038Z,100547.88
2022-11-19T04:19:32.770Z,100553.69
2022-11-19T04:22:00.487Z,100557.84
2022-11-19T04:24:28.238Z,100548.31
2022-11-19T04:26:55.972Z,100555.50
2022-11-19T04:29:23.701Z,100550.44
2022-11-19T04:31:51.414Z,100567.53
2022-11-19T04:34:20.500Z,100565.91
2022-11-19T04:36:48.383Z,100582.03
2022-11-19T04:39:16.159Z,100570.94
2022-11-19T04:41:43.877Z,100569.41
2022-11-19T04:44:11.621Z,100578.84
2022-11-19T04:46:39.299Z,100574.78
2022-11-19T04:49:07.076Z,100571.38
2022-11-19T04:51:36.179Z,100576.44
2022-11-19T04:54:03.903Z,100586.66
2022-11-19T04:56:31.607Z,100593.50
2022-11-19T04:58:59.287Z,100593.84
2022-11-19T05:01:27.043Z,100598.91
2022-11-19T05:03:54.776Z,100593.81
2022-11-19T05:06:22.487Z,100601.41
2022-11-19T05:08:51.560Z,100598.94
2022-11-19T05:11:19.333Z,100590.28
2022-11-19T05:13:47.020Z,100583.63
2022-11-19T05:16:14.722Z,100597.28
2022-11-19T05:18:42.453Z,100576.97
2022-11-19T05:21:10.322Z,100593.19
2022-11-19T05:23:38.054Z,100599.22
2022-11-19T05:26:07.220Z,100602.69
2022-11-19T05:28:38.941Z,100597.56
2022-11-19T05:31:07.268Z,100611.34
2022-11-19T05:33:35.017Z,100601.16
2022-11-19T05:36:02.866Z,100624.94
2022-11-19T05:38:30.571Z,100621.44
2022-11-19T05:40:58.291Z,100611.38
2022-11-19T05:43:27.379Z,100622.59
2022-11-19T05:45:55.018Z,100624.13
2022-11-19T05:48:22.740Z,100625.22
2022-11-19T05:50:50.428Z,100624.31
2022-11-19T05:53:18.063Z,100626.16
2022-11-19T05:55:45.771Z,100614.97
2022-11-19T05:58:13.802Z,100624.47
2022-11-19T06:00:42.966Z,100632.94
2022-11-19T06:03:11.005Z,100621.81
2022-11-19T06:05:40.479Z,100628.53
2022-11-19T06:08:08.369Z,100637.88
2022-11-19T06:10:36.024Z,100633.78
2022-11-19T06:13:03.676Z,100638.16
2022-11-19T06:15:31.407Z,100640.84
2022-11-19T06:18:00.408Z,100651.16
2022-11-19T06:20:28.115Z,100652.75
2022-11-19T06:22:55.837Z,100658.84
2022-11-19T06:25:23.915Z,100651.22
2022-11-19T06:27:51.621Z,100652.06
2022-11-19T06:30:19.529Z,100646.97
2022-11-19T06:32:47.232Z,100656.41
2022-11-19T06:35:16.476Z,100670.88
2022-11-19T06:37:44.131Z,100671.72
2022-11-19T06:40:13.127Z,100676.97
2022-11-19T06:42:40.852Z,100674.53
2022-11-19T06:45:11.450Z,100681.41
2022-11-19T06:47:40.351Z,100693.28
2022-11-19T06:50:09.971Z,100688.16
2022-11-19T06:52:39.360Z,100677.00
2022-11-19T06:55:07.868Z,100678.75
2022-11-19T06:57:35.941Z,100670.25
2022-11-19T07:00:04.108Z,100689.03
2022-11-19T07:02:31.931Z,100693.41
2022-11-19T07:04:59.625Z,100688.25
2022-11-19T07:07:27.532Z,100692.53
2022-11-19T07:09:56.655Z,100698.56
2022-11-19T07:12:24.302Z,100695.00
2022-11-19T07:14:52.177Z,100690.81
2022-11-19T07:17:20.011Z,100698.53
2022-11-19T07:19:47.693Z,100701.94
2022-11-19T07:22:15.453Z,100692.53
2022-11-19T07:24:43.204Z,100704.53
2022-11-19T07:27:12.524Z,100719.88
2022-11-19T07:29:40.236Z,100706.25
2022-11-19T07:32:08.089Z,100708.00
2022-11-19T07:34:36.204Z,100723.34
2022-11-19T07:37:03.934Z,100725.13
2022-11-19T07:39:31.672Z,100715.66
2022-11-19T07:42:16.793Z,100716.53
2022-11-19T07:44:47.904Z,100723.41
2022-11-19T07:47:17.427Z,100719.19
2022-11-19T07:49:45.117Z,100734.50
2022-11-19T07:52:12.896Z,100728.53
2022-11-19T07:54:40.606Z,100739.63
2022-11-19T07:57:08.900Z,100733.81
2022-11-19T07:59:36.591Z,100752.50
2022-11-19T08:02:05.738Z,100740.72
2022-11-19T08:04:33.547Z,100735.38
2022-11-19T08:07:02.471Z,100745.63
2022-11-19T08:09:30.216Z,100757.56
2022-11-19T08:11:57.921Z,100757.69
2022-11-19T08:14:25.643Z,100759.16
2022-11-19T08:17:10.799Z,100757.59
2022-11-19T08:19:39.898Z,100766.19
2022-11-19T08:22:07.815Z,100768.72
2022-11-19T08:24:35.463Z,100767.81
2022-11-19T08:27:03.133Z,100775.63
2022-11-19T08:29:30.780Z,100771.47
2022-11-19T08:31:58.520Z,100769.78
2022-11-19T08:34:26.339Z,100784.97
2022-11-19T08:36:55.365Z,100773.94
2022-11-19T08:39:23.034Z,100785.81
2022-11-19T08:42:08.311Z,100794.28
2022-11-19T08:44:36.048Z,100789.38
2022-11-19T08:47:03.679Z,100791.88
2022-11-19T08:49:31.348Z,100785.94
2022-11-19T08:52:00.384Z,100795.13
2022-11-19T08:54:28.071Z,100785.94
2022-11-19T08:56:55.772Z,100790.81
2022-11-19T08:59:23.474Z,100783.06
2022-11-19T09:01:51.247Z,100799.69
2022-11-19T09:04:19.318Z,100783.22
2022-11-19T09:06:47.167Z,100791.50
2022-11-19T09:09:16.408Z,100802.59
2022-11-19T09:11:44.064Z,100794.25
2022-11-19T09:14:11.934Z,100794.25
2022-11-19T09:16:39.641Z,100795.91
2022-11-19T09:19:07.288Z,100789.84
2022-11-19T09:21:34.936Z,100789.97
2022-11-19T09:24:02.614Z,100786.50
2022-11-19T09:26:31.692Z,100789.97
2022-11-19T09:28:59.416Z,100817.91
2022-11-19T09:31:27.168Z,100795.81
2022-11-19T09:33:55.261Z,100819.75
2022-11-19T09:36:22.993Z,100813.50
2022-11-19T09:38:50.684Z,100820.94
2022-11-19T09:41:43.416Z,100818.38
2022-11-19T09:44:23.600Z,100816.97
2022-11-19T09:46:57.247Z,100825.41
2022-11-19T09:49:29.792Z,100827.38
2022-11-19T09:51:59.667Z,100830.81
2022-11-19T09:54:27.617Z,100841.03
2022-11-19T09:57:01.774Z,100822.69
2022-11-19T09:59:35.028Z,100840.25
2022-11-19T10:02:02.931Z,100820.69
2022-11-19T10:04:33.347Z,100848.84
2022-11-19T10:07:11.341Z,100837.84
2022-11-19T10:09:56.166Z,100843.91
2022-11-19T10:12:33.341Z,100838.53
2022-11-19T10:15:13.809Z,100848.56
2022-11-19T10:17:51.263Z,100851.09
2022-11-19T10:20:35.501Z,100857.03
2022-11-19T10:23:07.315Z,100851.25
2022-11-19T10:25:37.600Z,100862.81
2022-11-19T10:28:12.468Z,100865.50
2022-11-19T10:30:41.896Z,100852.13
2022-11-19T10:33:15.921Z,100847.00
2022-11-19T10:35:45.641Z,100838.41
2022-11-19T10:38:18.883Z,100846.97
2022-11-19T10:40:48.193Z,100841.53
2022-11-19T10:43:23.588Z,100840.84
2022-11-19T10:45:51.340Z,100843.88
2022-11-19T10:48:21.929Z,100826.47
2022-11-19T10:50:49.883Z,100836.19
2022-11-19T10:53:21.070Z,100832.00
2022-11-19T10:55:54.465Z,100852.34
2022-11-19T10:58:26.300Z,100837.03
2022-11-19T11:00:54.744Z,100829.34
2022-11-19T11:03:25.095Z,100820.75
2022-11-19T11:06:01.929Z,100828.97
2022-11-19T11:08:29.728Z,100833.81
2022-11-19T11:10:57.525Z,100831.47
2022-11-19T11:13:53.944Z,100833.34
2022-11-19T11:16:23.792Z,100831.75
2022-11-19T11:18:54.243Z,100828.91
2022-11-19T11:21:34.288Z,100830.00
2022-11-19T11:24:04.537Z,100841.06
2022-11-19T11:26:34.608Z,100829.75
2022-11-19T11:29:05.812Z,100826.28
2022-11-19T11:31:37.647Z,100814.75
2022-11-19T11:34:06.890Z,100830.91
2022-11-19T11:36:36.627Z,100828.56
2022-11-19T11:39:06.136Z,100821.44
2022-11-19T11:44:27.319Z,100813.31
2022-11-19T11:46:56.047Z,100809.69
2022-11-19T11:49:29.840Z,100837.78
2022-11-19T11:52:04.135Z,100819.84
2022-11-19T11:54:32.034Z,100822.38
2022-11-19T11:57:18.508Z,100835.75
2022-11-19T11:59:47.613Z,100818.91
2022-11-19T12:02:26.853Z,100832.84
2022-11-19T12:04:56.055Z,100807.00
2022-11-19T12:07:36.765Z,100806.38
2022-11-19T12:10:15.320Z,100823.31
2022-11-19T12:12:49.331Z,100814.88
2022-11-19T12:15:23.120Z,100812.13
2022-11-19T12:17:55.765Z,100804.31
2022-11-19T12:20:30.643Z,100803.50
2022-11-19T12:23:15.700Z,100796.31
2022-11-19T12:25:52.252Z,100796.47
2022-11-19T12:28:38.884Z,100799.03
2022-11-19T12:31:16.977Z,100789.88
2022-11-19T12:33:57.473Z,100787.16
2022-11-19T12:36:32.009Z,100793.25
2022-11-19T12:39:03.971Z,100783.69
2022-11-19T12:41:45.085Z,100790.91
2022-11-19T12:44:18.082Z,100802.75
2022-11-19T12:46:52.997Z,100792.34
2022-11-19T12:49:38.780Z,100786.13
2022-11-19T12:52:17.421Z,100781.44
2022-11-19T12:54:52.798Z,100787.09
2022-11-19T12:57:30.082Z,100792.44
2022-11-19T13:00:16.339Z,100793.06
2022-11-19T13:02:53.370Z,100778.03
2022-11-19T13:05:26.464Z,100799.00
2022-11-19T13:07:57.762Z,100794.88
2022-11-19T13:10:27.824Z,100790.59
2022-11-19T13:12:57.293Z,100782.03
2022-11-19T13:15:31.593Z,100797.25
2022-11-19T13:18:03.768Z,100798.72
2022-11-19T13:20:38.863Z,100787.31
2022-11-19T13:23:07.802Z,100786.91
2022-11-19T13:25:38.322Z,100775.91
2022-11-19T13:28:14.777Z,100773.56
2022-11-19T13:30:44.328Z,100771.53
2022-11-19T13:33:17.389Z,100770.34
2022-11-19T13:35:50.063Z,100761.56
2022-11-19T13:38:22.614Z,100768.53
2022-11-19T13:40:54.472Z,100768.19
2022-11-19T13:43:41.256Z,100754.28
2022-11-19T13:46:19.871Z,100756.00
2022-11-19T13:48:54.842Z,100762.00
2022-11-19T13:51:28.278Z,100764.81
2022-11-19T13:54:02.673Z,100767.38
2022-11-19T13:56:41.166Z,100743.97
2022-11-19T13:59:16.547Z,100764.00
2022-11-19T14:02:01.029Z,100778.53
2022-11-19T14:04:43.084Z,100764.25
2022-11-19T14:07:46.531Z,100761.44
2022-11-19T14:10:18.712Z,100754.63
2022-11-19T14:12:56.672Z,100770.13
2022-11-19T14:15:53.969Z,100767.50
2022-11-19T14:18:43.932Z,100750.53
2022-11-19T14:22:06.916Z,100749.31
2022-11-19T14:25:11.324Z,100743.13
2022-11-19T14:27:38.995Z,100746.47
2022-11-19T14:30:08.669Z,100751.00
2022-11-19T14:32:46.738Z,100745.38
2022-11-19T14:35:42.173Z,100741.97
2022-11-19T14:38:31.641Z,100753.97
2022-11-19T14:41:18.443Z,100759.84
2022-11-19T14:44:11.514Z,100743.50
2022-11-19T14:46:41.237Z,100742.75
2022-11-19T14:49:27.516Z,100732.22
2022-11-19T14:51:56.987Z,100731.06
2022-11-19T14:54:33.270Z,100733.63
2022-11-19T14:57:16.424Z,100737.31
2022-11-19T14:59:47.711Z,100734.88
2022-11-19T15:02:23.249Z,100729.00
2022-11-19T15:04:56.553Z,100715.00
2022-11-19T15:07:39.297Z,100715.38
2022-11-19T15:10:26.093Z,100740.50
2022-11-19T15:13:06.670Z,100724.84
2022-11-19T15:15:39.631Z,100740.63
2022-11-19T15:18:18.434Z,100738.94
2022-11-19T15:21:00.669Z,100731.94
2022-11-19T15:23:32.864Z,100745.34
2022-11-19T15:26:08.440Z,100731.13
2022-11-19T15:28:45.120Z,100746.13
2022-11-19T15:31:23.777Z,100734.69
2022-11-19T15:34:22.845Z,100740.69
2022-11-19T15:36:51.359Z,100742.25
2022-11-19T15:39:23.949Z,100750.59
2022-11-19T15:42:04.174Z,100752.25
2022-11-19T15:44:38.404Z,100742.00
2022-11-19T15:47:12.782Z,100739.72
2022-11-19T15:49:40.884Z,100735.63
2022-11-19T15:52:18.285Z,100729.66
2022-11-19T15:54:46.152Z,100739.16
2022-11-19T15:57:23.088Z,100734.03
2022-11-19T15:59:55.164Z,100729.19
2022-11-19T16:02:26.607Z,100727.78
2022-11-19T16:04:54.278Z,100725.31
2022-11-19T16:07:24.245Z,100725.59
2022-11-19T16:09:52.225Z,100722.81
2022-11-19T16:12:41.111Z,100726.25
2022-11-19T16:15:42.813Z,100731.13
2022-11-19T16:18:14.289Z,100734.72
2022-11-19T16:20:43.924Z,100725.25
2022-11-19T16:23:11.934Z,100731.59
2022-11-19T16:25:41.516Z,100720.63
2022-11-19T16:28:13.480Z,100738.38
2022-11-19T16:30:46.266Z,100740.09
2022-11-19T16:33:20.316Z,100735.75
2022-11-19T16:35:52.564Z,100728.91
2022-11-19T16:38:25.022Z,100726.56
2022-11-19T16:41:11.504Z,100725.53
2022-11-19T16:43:42.065Z,100741.88
2022-11-19T16:46:13.292Z,100735.75
2022-11-19T16:48:54.588Z,100734.81
2022-11-19T16:51:37.056Z,100735.03
2022-11-19T16:54:06.134Z,100737.13
2022-11-19T16:56:36.420Z,100741.97
2022-11-19T16:59:06.533Z,100748.91
2022-11-19T17:01:35.938Z,100744.66
2022-11-19T17:04:06.938Z,100749.00
2022-11-19T17:06:37.092Z,100743.72
2022-11-19T17:09:06.351Z,100742.00
2022-11-19T17:11:59.834Z,100734.59
2022-11-19T17:14:46.847Z,100733.78
2022-11-19T17:17:40.369Z,100746.53
2022-11-19T17:20:49.685Z,100746.59
2022-11-19T17:23:18.860Z,100752.59
2022-11-19T17:25:48.365Z,100749.28
2022-11-19T17:28:26.722Z,100759.47
2022-11-19T17:30:56.576Z,100756.94
2022-11-19T17:33:24.724Z,100751.97
2022-11-19T17:35:52.756Z,100750.91
2022-11-19T17:38:21.497Z,100761.22
2022-11-19T17:40:51.057Z,100756.06
2022-11-19T17:43:41.680Z,100757.97
2022-11-19T17:46:10.849Z,100763.03
2022-11-19T17:48:41.064Z,100762.19
2022-11-19T17:51:11.494Z,100766.53
2022-11-19T17:53:39.473Z,100773.47
2022-11-19T17:56:08.506Z,100763.16
2022-11-19T17:58:36.119Z,100770.94
2022-11-19T18:01:03.784Z,100773.69
2022-11-19T18:03:32.772Z,100777.91
2022-11-19T18:06:02.351Z,100773.78
2022-11-19T18:08:30.064Z,100779.72
2022-11-19T18:10:58.053Z,100762.91
2022-11-19T18:13:27.467Z,100762.16
2022-11-19T18:15:55.188Z,100768.03
2022-11-19T18:18:24.165Z,100762.06
2022-11-19T18:20:57.602Z,100768.91
2022-11-19T18:23:28.333Z,100767.22
2022-11-19T18:25:56.100Z,100760.28
2022-11-19T18:28:23.792Z,100763.75
2022-11-19T18:30:51.504Z,100758.72
2022-11-19T18:33:20.198Z,100760.09
2022-11-19T18:35:47.935Z,100755.03
2022-11-19T18:38:17.139Z,100760.88
2022-11-19T18:40:44.833Z,100752.31
2022-11-19T18:43:40.044Z,100750.53
2022-11-19T18:46:07.895Z,100753.97
2022-11-19T18:48:35.620Z,100744.75
2022-11-19T18:51:03.333Z,100742.78
2022-11-19T18:53:32.414Z,100752.47
2022-11-19T18:56:00.145Z,100744.75
2022-11-19T18:58:27.812Z,100743.03
2022-11-19T19:00:55.553Z,100748.13
2022-11-19T19:03:23.270Z,100752.31
2022-11-19T19:05:51.001Z,100761.88
2022-11-19T19:08:19.087Z,100759.25
2022-11-19T19:10:48.083Z,100751.66
2022-11-19T19:13:14.735Z,100764.31
2022-11-19T19:15:42.378Z,100748.13
2022-11-19T19:18:11.138Z,100752.22
2022-11-19T19:20:38.783Z,100758.38
2022-11-19T19:23:06.520Z,100740.56
2022-11-19T19:25:34.255Z,100738.78
2022-11-19T19:28:03.268Z,100741.38
2022-11-19T19:30:30.984Z,100737.97
2022-11-19T19:32:58.660Z,100744.09
2022-11-19T19:35:26.538Z,100738.94
2022-11-19T19:37:54.683Z,100744.84
2022-11-19T19:40:22.352Z,100748.19
2022-11-19T19:42:50.108Z,100751.66
2022-11-19T19:45:19.164Z,100757.66
2022-11-19T19:47:46.853Z,100754.31
2022-11-19T19:50:14.634Z,100756.03
2022-11-19T19:52:42.364Z,100748.22
2022-11-19T19:55:10.447Z,100748.44
2022-11-19T19:57:38.186Z,100745.06
2022-11-19T20:00:07.148Z,100746.66
2022-11-19T20:02:36.220Z,100748.31
2022-11-19T20:05:03.999Z,100741.59
2022-11-19T20:07:31.868Z,100739.84
2022-11-19T20:09:59.604Z,100741.69
2022-11-19T20:12:48.059Z,100734.06
2022-11-19T20:15:15.964Z,100731.75
2022-11-19T20:17:45.176Z,100745.53
2022-11-19T20:20:13.575Z,100736.97
2022-11-19T20:22:41.194Z,100735.25
2022-11-19T20:25:09.271Z,100744.66
2022-11-19T20:27:37.021Z,100744.59
2022-11-19T20:30:06.037Z,100735.25
2022-11-19T20:32:33.781Z,100735.28
2022-11-19T20:35:02.791Z,100733.56
2022-11-19T20:37:30.464Z,100736.97
2022-11-19T20:39:58.281Z,100731.72
2022-11-19T20:42:43.717Z,100731.56
2022-11-19T20:45:11.459Z,100731.63
2022-11-19T20:47:39.216Z,100728.25
2022-11-19T20:50:08.707Z,100730.00
2022-11-19T20:52:36.440Z,100719.75
2022-11-19T20:55:06.778Z,100719.84
2022-11-19T20:57:34.753Z,100719.91
2022-11-19T21:00:02.544Z,100721.66
2022-11-19T21:02:30.316Z,100722.50
2022-11-19T21:04:58.248Z,100721.56
2022-11-19T21:07:27.488Z,100723.28
2022-11-19T21:09:55.224Z,100714.81
2022-11-19T21:12:23.905Z,100714.81
2022-11-19T21:14:51.624Z,100721.63
2022-11-19T21:17:19.329Z,100716.56
2022-11-19T21:19:47.037Z,100718.28
2022-11-19T21:22:14.800Z,100720.00
2022-11-19T21:24:43.890Z,100721.69
2022-11-19T21:27:11.535Z,100733.63
2022-11-19T21:29:39.350Z,100736.22
2022-11-19T21:32:08.134Z,100728.50
2022-11-19T21:34:35.861Z,100733.69
2022-11-19T21:37:03.526Z,100734.50
2022-11-19T21:39:31.168Z,100725.09
2022-11-19T21:42:00.276Z,100715.69
2022-11-19T21:44:28.016Z,100707.09
2022-11-19T21:46:55.797Z,100704.50
2022-11-19T21:49:23.705Z,100700.13
2022-11-19T21:51:51.530Z,100697.59
2022-11-19T21:54:19.349Z,100695.91
2022-11-19T21:56:47.226Z,100701.09
2022-11-19T21:59:16.312Z,100692.50
2022-11-19T22:01:43.999Z,100699.31
2022-11-19T22:04:13.585Z,100692.50
2022-11-19T22:06:41.587Z,100688.94
2022-11-19T22:09:09.400Z,100690.72
2022-11-19T22:11:37.108Z,100689.00
2022-11-19T22:14:06.118Z,100684.81
2022-11-19T22:16:36.774Z,100688.34
2022-11-19T22:19:05.550Z,100686.66
2022-11-19T22:21:33.623Z,100696.94
2022-11-19T22:24:01.389Z,100707.16
2022-11-19T22:26:29.177Z,100712.16
2022-11-19T22:28:57.026Z,100703.56
2022-11-19T22:31:25.583Z,100694.19
2022-11-19T22:33:55.478Z,100690.84
2022-11-19T22:36:23.891Z,100695.19
2022-11-19T22:38:52.041Z,100696.94
2022-11-19T22:41:21.925Z,100687.44
2022-11-19T22:43:49.817Z,100690.84
2022-11-19T22:46:17.746Z,100695.97
2022-11-19T22:48:45.482Z,100701.13
2022-11-19T22:51:16.100Z,100680.47
2022-11-19T22:53:44.007Z,100694.97
2022-11-19T22:56:13.738Z,100690.63
2022-11-19T22:58:41.682Z,100692.38
2022-11-19T23:01:15.572Z,100682.13
2022-11-19T23:03:43.352Z,100684.66
2022-11-19T23:06:11.024Z,100678.66
2022-11-19T23:08:40.096Z,100681.13
2022-11-19T23:11:08.406Z,100666.63
2022-11-19T23:13:38.957Z,100662.41
2022-11-19T23:16:09.131Z,100665.94
2022-11-19T23:18:38.556Z,100666.81
2022-11-19T23:21:08.109Z,100665.06
2022-11-19T23:23:35.952Z,100663.31
2022-11-19T23:26:05.827Z,100671.75
2022-11-19T23:28:35.450Z,100671.59
2022-11-19T23:31:07.274Z,100663.91
2022-11-19T23:33:34.940Z,100665.69
2022-11-19T23:36:04.077Z,100666.59
2022-11-19T23:38:31.959Z,100656.22
2022-11-19T23:41:00.109Z,100657.97
2022-11-19T23:43:29.899Z,100653.56
2022-11-19T23:46:04.376Z,100654.47
2022-11-19T23:48:32.149Z,100657.19
2022-11-19T23:51:01.920Z,100655.53
2022-11-19T23:53:29.647Z,100659.88
2022-11-19T23:55:57.547Z,100653.06
2022-11-19T23:58:25.211Z,100654.81
